createdAt,value
2019-05-01T14:26:27.026Z,27.20
2019-05-01T14:28:55.230Z,27.10
2019-05-01T14:31:23.421Z,26.90
2019-05-01T14:33:51.628Z,26.70
2019-05-01T14:36:19.819Z,26.70
2019-05-01T14:38:48.026Z,26.90
2019-05-01T14:41:16.232Z,27.10
2019-05-01T14:43:44.430Z,27.00
2019-05-01T14:46:12.628Z,27.00
2019-05-01T14:48:40.829Z,27.20
2019-05-01T14:51:09.059Z,27.30
2019-05-01T14:53:37.547Z,27.20
2019-05-01T14:56:05.780Z,27.40
2019-05-01T14:58:34.216Z,27.30
2019-05-01T15:01:02.681Z,27.50
2019-05-01T15:03:30.863Z,27.30
2019-05-01T15:05:59.298Z,27.40
2019-05-01T15:08:27.492Z,27.20
2019-05-01T15:10:55.718Z,27.20
2019-05-01T15:13:42.381Z,26.90
2019-05-01T15:16:12.217Z,27.00
2019-05-01T15:19:00.223Z,27.20
2019-05-01T15:21:28.429Z,27.20
2019-05-01T15:23:56.635Z,27.20
2019-05-01T15:26:24.837Z,27.20
2019-05-01T15:28:53.043Z,27.10
2019-05-01T15:31:21.263Z,27.30
2019-05-01T15:33:49.476Z,27.50
2019-05-01T15:36:17.950Z,27.50
2019-05-01T15:38:46.147Z,27.70
2019-05-01T15:41:32.231Z,27.60
2019-05-01T15:44:05.059Z,27.70
2019-05-01T15:46:34.899Z,27.70
2019-05-01T15:49:03.126Z,27.80
2019-05-01T15:51:31.329Z,27.80
2019-05-01T15:53:59.535Z,27.90
2019-05-01T15:56:27.719Z,28.00
2019-05-01T15:58:55.925Z,28.10
2019-05-01T16:01:24.123Z,28.00
2019-05-01T16:03:52.338Z,28.10
2019-05-01T16:06:20.755Z,28.00
2019-05-01T16:08:48.971Z,27.70
2019-05-01T16:11:21.743Z,27.60
2019-05-01T16:13:49.935Z,27.20
2019-05-01T16:16:18.147Z,26.90
2019-05-01T16:18:46.372Z,26.60
2019-05-01T16:21:14.575Z,26.40
2019-05-01T16:23:42.758Z,26.10
2019-05-01T16:26:11.029Z,25.90
2019-05-01T16:28:39.480Z,25.70
2019-05-01T16:31:07.684Z,25.70
2019-05-01T16:33:36.232Z,25.50
2019-05-01T16:36:04.431Z,25.10
2019-05-01T16:38:34.262Z,24.80
2019-05-01T16:41:04.140Z,24.60
2019-05-01T16:43:32.615Z,24.50
2019-05-01T16:46:00.828Z,24.30
2019-05-01T16:48:29.056Z,24.10
2019-05-01T16:50:57.279Z,24.00
2019-05-01T16:53:25.476Z,24.00
2019-05-01T16:55:53.691Z,23.80
2019-05-01T16:58:22.145Z,23.70
2019-05-01T17:01:03.203Z,23.70
2019-05-01T17:03:33.261Z,23.60
2019-05-01T17:06:03.331Z,23.50
2019-05-01T17:08:42.192Z,23.30
2019-05-01T17:11:12.211Z,23.10
2019-05-01T17:13:40.410Z,23.00
2019-05-01T17:16:08.683Z,22.90
2019-05-01T17:18:36.881Z,22.90
2019-05-01T17:21:05.275Z,22.90
2019-05-01T17:23:33.480Z,22.90
2019-05-01T17:26:01.688Z,22.80
2019-05-01T17:28:32.638Z,22.80
2019-05-01T17:31:00.594Z,22.80
2019-05-01T17:33:28.864Z,22.70
2019-05-01T17:35:57.067Z,22.50
2019-05-01T17:38:25.253Z,22.40
2019-05-01T17:40:53.614Z,22.30
2019-05-01T17:43:21.823Z,22.20
2019-05-01T17:45:50.020Z,22.20
2019-05-01T17:48:18.224Z,22.10
2019-05-01T17:50:46.424Z,22.10
2019-05-01T17:53:14.613Z,22.00
2019-05-01T17:55:42.807Z,21.90
2019-05-01T17:58:11.248Z,21.90
2019-05-01T18:00:41.107Z,21.90
2019-05-01T18:03:25.679Z,21.80
2019-05-01T18:05:56.076Z,21.80
2019-05-01T18:08:25.888Z,21.80
2019-05-01T18:10:54.102Z,21.60
2019-05-01T18:13:22.339Z,21.70
2019-05-01T18:15:50.524Z,21.60
2019-05-01T18:18:18.740Z,21.50
2019-05-01T18:20:47.022Z,21.40
2019-05-01T18:23:25.887Z,21.40
2019-05-01T18:25:55.754Z,21.30
2019-05-01T18:28:37.787Z,21.30
2019-05-01T18:31:07.631Z,21.20
2019-05-01T18:33:35.837Z,21.10
2019-05-01T18:36:04.835Z,21.10
2019-05-01T18:38:35.603Z,21.00
2019-05-01T18:41:08.175Z,20.90
2019-05-01T18:43:36.384Z,20.80
2019-05-01T18:46:08.121Z,20.70
2019-05-01T18:48:36.160Z,20.70
2019-05-01T18:51:04.370Z,20.60
2019-05-01T18:53:32.778Z,20.50
2019-05-01T18:56:05.158Z,20.50
2019-05-01T18:58:31.180Z,20.40
2019-05-01T19:01:03.932Z,20.40
2019-05-01T19:03:29.988Z,20.30
2019-05-01T19:05:58.288Z,20.30
2019-05-01T19:08:26.703Z,20.30
2019-05-01T19:10:55.140Z,20.30
2019-05-01T19:13:23.441Z,20.20
2019-05-01T19:15:51.649Z,20.20
2019-05-01T19:18:19.836Z,20.10
2019-05-01T19:20:58.800Z,20.00
2019-05-01T19:23:22.082Z,19.90
2019-05-01T19:25:47.931Z,19.80
2019-05-01T19:28:16.811Z,19.80
2019-05-01T19:30:45.080Z,19.70
2019-05-01T19:33:13.556Z,19.70
2019-05-01T19:35:41.749Z,19.50
2019-05-01T19:38:10.441Z,19.50
2019-05-01T19:40:38.635Z,19.50
2019-05-01T19:43:06.852Z,19.40
2019-05-01T19:45:35.049Z,19.40
2019-05-01T19:48:03.263Z,19.40
2019-05-01T19:50:31.518Z,19.30
2019-05-01T19:52:59.967Z,19.20
2019-05-01T19:55:28.169Z,19.10
2019-05-01T19:57:56.607Z,19.10
2019-05-01T20:00:51.142Z,19.00
2019-05-01T20:03:19.792Z,18.90
2019-05-01T20:05:48.349Z,18.80
2019-05-01T20:08:16.840Z,18.80
2019-05-01T20:10:45.034Z,18.70
2019-05-01T20:13:13.362Z,18.60
2019-05-01T20:15:41.622Z,18.60
2019-05-01T20:18:09.840Z,18.60
2019-05-01T20:20:38.086Z,18.50
2019-05-01T20:23:06.283Z,18.50
2019-05-01T20:25:34.501Z,18.30
2019-05-01T20:28:02.700Z,18.30
2019-05-01T20:30:30.900Z,18.30
2019-05-01T20:33:02.228Z,18.20
2019-05-01T20:35:30.231Z,18.10
2019-05-01T20:37:58.523Z,18.00
2019-05-01T20:40:26.731Z,18.10
2019-05-01T20:42:54.952Z,18.00
2019-05-01T20:45:23.161Z,18.00
2019-05-01T20:47:54.240Z,18.00
2019-05-01T20:50:21.320Z,17.90
2019-05-01T20:52:49.532Z,17.80
2019-05-01T20:55:17.736Z,17.70
2019-05-01T20:57:49.826Z,17.70
2019-05-01T21:00:20.442Z,17.60
2019-05-01T21:02:48.682Z,17.60
2019-05-01T21:05:27.504Z,17.60
2019-05-01T21:07:58.393Z,17.50
2019-05-01T21:10:34.386Z,17.50
2019-05-01T21:13:01.172Z,17.50
2019-05-01T21:15:29.405Z,17.30
2019-05-01T21:17:57.655Z,17.30
2019-05-01T21:20:25.876Z,17.20
2019-05-01T21:22:54.183Z,17.10
2019-05-01T21:25:23.986Z,17.10
2019-05-01T21:27:54.080Z,17.00
2019-05-01T21:30:23.718Z,17.00
2019-05-01T21:32:54.108Z,16.80
2019-05-01T21:35:23.895Z,16.80
2019-05-01T21:37:52.270Z,16.70
2019-05-01T21:40:20.510Z,16.70
2019-05-01T21:42:54.348Z,16.60
2019-05-01T21:45:18.683Z,16.60
2019-05-01T21:47:46.883Z,16.60
2019-05-01T21:50:17.830Z,16.60
2019-05-01T21:52:45.044Z,16.60
2019-05-01T21:55:13.255Z,16.50
2019-05-01T21:57:41.459Z,16.40
2019-05-01T22:00:10.180Z,16.40
2019-05-01T22:02:41.631Z,16.30
2019-05-01T22:05:08.312Z,16.20
2019-05-01T22:07:36.527Z,16.20
2019-05-01T22:10:06.547Z,16.10
2019-05-01T22:12:34.719Z,16.00
2019-05-01T22:15:11.075Z,16.00
2019-05-01T22:17:40.101Z,16.00
2019-05-01T22:20:10.447Z,16.00
2019-05-01T22:22:56.845Z,16.00
2019-05-01T22:25:26.697Z,15.90
2019-05-01T22:27:59.241Z,15.90
2019-05-01T22:30:35.087Z,15.90
2019-05-01T22:33:03.511Z,15.90
2019-05-01T22:35:33.375Z,15.80
2019-05-01T22:38:01.564Z,15.80
2019-05-01T22:40:49.739Z,15.80
2019-05-01T22:43:18.186Z,15.80
2019-05-01T22:45:46.385Z,15.80
2019-05-01T22:48:14.575Z,15.80
2019-05-01T22:50:42.786Z,15.80
2019-05-01T22:53:13.081Z,15.90
2019-05-01T22:55:41.020Z,15.90
2019-05-01T22:58:09.408Z,15.80
2019-05-01T23:00:45.247Z,15.80
2019-05-01T23:03:15.085Z,15.80
2019-05-01T23:05:43.329Z,15.80
2019-05-01T23:08:11.536Z,15.80
2019-05-01T23:10:41.902Z,15.70
2019-05-01T23:13:09.980Z,15.70
2019-05-01T23:15:38.184Z,15.70
2019-05-01T23:18:06.387Z,15.70
2019-05-01T23:20:38.682Z,15.60
2019-05-01T23:23:05.259Z,15.50
2019-05-01T23:25:36.575Z,15.60
2019-05-01T23:28:04.193Z,15.50
2019-05-01T23:30:34.244Z,15.50
2019-05-01T23:33:02.440Z,15.50
2019-05-01T23:35:30.900Z,15.50
2019-05-01T23:37:59.108Z,15.50
2019-05-01T23:40:27.299Z,15.50
2019-05-01T23:42:55.517Z,15.50
2019-05-01T23:45:23.713Z,15.40
2019-05-01T23:47:52.007Z,15.40
2019-05-01T23:50:20.458Z,15.40
2019-05-01T23:52:48.668Z,15.40
2019-05-01T23:55:16.871Z,15.30
2019-05-01T23:57:45.388Z,15.30
